createdAt,value
2019-04-01T00:00:20.795Z,8.26
2019-04-01T00:02:49.186Z,8.22
2019-04-01T00:05:17.613Z,8.19
2019-04-01T00:07:46.017Z,8.18
2019-04-01T00:10:14.583Z,8.11
2019-04-01T00:12:42.980Z,8.10
2019-04-01T00:15:11.456Z,8.09
2019-04-01T00:17:39.865Z,8.03
2019-04-01T00:20:08.607Z,8.01
2019-04-01T00:22:37.021Z,8.01
2019-04-01T00:25:05.594Z,8.02
2019-04-01T00:27:34.015Z,7.96
2019-04-01T00:30:02.721Z,7.93
2019-04-01T00:32:31.092Z,7.92
2019-04-01T00:34:59.566Z,7.88
2019-04-01T00:37:27.960Z,7.88
2019-04-01T00:39:56.667Z,7.84
2019-04-01T00:42:41.767Z,7.82
2019-04-01T00:45:12.003Z,7.81
2019-04-01T00:47:40.397Z,7.78
2019-04-01T00:50:08.859Z,7.78
2019-04-01T00:52:37.274Z,7.75
2019-04-01T00:55:05.675Z,7.72
2019-04-01T00:57:34.069Z,7.66
2019-04-01T01:00:02.810Z,7.65
2019-04-01T01:02:31.210Z,7.63
2019-04-01T01:04:59.616Z,7.66
2019-04-01T01:07:28.035Z,7.61
2019-04-01T01:09:56.458Z,7.60
2019-04-01T01:12:25.137Z,7.58
2019-04-01T01:14:53.583Z,7.54
2019-04-01T01:17:22.596Z,7.49
2019-04-01T01:19:50.997Z,7.48
2019-04-01T01:22:19.391Z,7.44
2019-04-01T01:24:47.818Z,7.41
2019-04-01T01:27:16.522Z,7.38
2019-04-01T01:29:44.928Z,7.34
2019-04-01T01:32:13.370Z,7.35
2019-04-01T01:34:41.773Z,7.39
2019-04-01T01:37:10.317Z,7.36
2019-04-01T01:39:39.034Z,7.35
2019-04-01T01:42:07.430Z,7.35
2019-04-01T01:44:35.910Z,7.29
2019-04-01T01:47:04.589Z,7.29
2019-04-01T01:49:32.991Z,7.25
2019-04-01T01:52:01.742Z,7.24
2019-04-01T01:54:30.141Z,7.18
2019-04-01T01:56:58.535Z,7.15
2019-04-01T01:59:26.958Z,7.12
2019-04-01T02:01:55.354Z,7.13
2019-04-01T02:04:23.825Z,7.05
2019-04-01T02:06:52.169Z,7.04
2019-04-01T02:09:20.599Z,7.02
2019-04-01T02:11:48.997Z,7.01
2019-04-01T02:14:17.412Z,6.98
2019-04-01T02:16:45.833Z,6.94
2019-04-01T02:19:14.223Z,6.92
2019-04-01T02:21:42.620Z,6.90
2019-04-01T02:24:11.012Z,6.91
2019-04-01T02:26:39.430Z,6.90
2019-04-01T02:29:07.832Z,6.86
2019-04-01T02:31:36.229Z,6.81
2019-04-01T02:34:04.652Z,6.78
2019-04-01T02:36:33.730Z,6.76
2019-04-01T02:39:02.133Z,6.76
2019-04-01T02:41:30.562Z,6.75
2019-04-01T02:43:59.043Z,6.71
2019-04-01T02:46:27.799Z,6.69
2019-04-01T02:48:56.234Z,6.69
2019-04-01T02:51:24.644Z,6.68
2019-04-01T02:53:53.045Z,6.67
2019-04-01T02:56:21.475Z,6.64
2019-04-01T02:58:49.877Z,6.61
2019-04-01T03:01:18.267Z,6.61
2019-04-01T03:03:46.786Z,6.59
2019-04-01T03:06:15.197Z,6.59
2019-04-01T03:08:43.603Z,6.57
2019-04-01T03:11:12.008Z,6.53
2019-04-01T03:13:40.414Z,6.50
2019-04-01T03:16:08.838Z,6.46
2019-04-01T03:18:37.820Z,6.46
2019-04-01T03:21:06.201Z,6.45
2019-04-01T03:23:34.611Z,6.42
2019-04-01T03:26:03.011Z,6.38
2019-04-01T03:28:31.434Z,6.38
2019-04-01T03:30:59.830Z,6.39
2019-04-01T03:33:28.232Z,6.36
2019-04-01T03:35:56.643Z,6.37
2019-04-01T03:38:27.810Z,6.37
2019-04-01T03:40:55.186Z,6.36
2019-04-01T03:43:23.579Z,6.28
2019-04-01T03:45:51.973Z,6.32
2019-04-01T03:48:20.371Z,6.29
2019-04-01T03:50:48.805Z,6.27
2019-04-01T03:53:17.198Z,6.24
2019-04-01T03:55:45.865Z,6.23
2019-04-01T03:58:14.280Z,6.16
2019-04-01T04:00:42.675Z,6.12
2019-04-01T04:03:11.104Z,6.10
2019-04-01T04:05:39.533Z,6.07
2019-04-01T04:08:07.923Z,6.03
2019-04-01T04:10:36.328Z,5.99
2019-04-01T04:13:04.743Z,5.97
2019-04-01T04:15:33.142Z,5.90
2019-04-01T04:18:01.536Z,5.83
2019-04-01T04:20:29.955Z,5.77
2019-04-01T04:22:58.404Z,5.77
2019-04-01T04:25:27.429Z,5.74
2019-04-01T04:27:55.861Z,5.66
2019-04-01T04:30:24.429Z,5.63
2019-04-01T04:32:52.830Z,5.64
2019-04-01T04:35:21.234Z,5.58
2019-04-01T04:37:49.632Z,5.54
2019-04-01T04:40:18.032Z,5.53
2019-04-01T04:42:46.779Z,5.52
2019-04-01T04:45:15.229Z,5.52
2019-04-01T04:47:43.629Z,5.52
2019-04-01T04:50:12.044Z,5.51
2019-04-01T04:52:40.444Z,5.49
2019-04-01T04:55:08.909Z,5.47
2019-04-01T04:57:37.323Z,5.43
2019-04-01T05:00:07.554Z,5.44
2019-04-01T05:02:35.950Z,5.46
2019-04-01T05:05:06.835Z,5.47
2019-04-01T05:07:35.235Z,5.45
2019-04-01T05:10:04.661Z,5.40
2019-04-01T05:12:33.076Z,5.36
2019-04-01T05:15:01.865Z,5.30
2019-04-01T05:17:30.247Z,5.20
2019-04-01T05:19:58.651Z,5.13
2019-04-01T05:22:27.944Z,5.09
2019-04-01T05:24:57.572Z,5.06
2019-04-01T05:27:26.738Z,5.09
2019-04-01T05:29:55.599Z,5.10
2019-04-01T05:32:26.544Z,5.12
2019-04-01T05:34:58.305Z,5.18
2019-04-01T05:37:26.704Z,5.23
2019-04-01T05:39:55.367Z,5.30
2019-04-01T05:42:23.807Z,5.35
2019-04-01T05:44:52.198Z,5.38
2019-04-01T05:47:22.304Z,5.48
2019-04-01T05:49:50.721Z,5.60
2019-04-01T05:52:19.119Z,5.66
2019-04-01T05:54:47.610Z,5.74
2019-04-01T05:57:16.015Z,5.81
2019-04-01T05:59:44.404Z,5.91
2019-04-01T06:02:13.005Z,5.99
2019-04-01T06:04:41.470Z,6.07
2019-04-01T06:07:10.106Z,6.15
2019-04-01T06:09:38.529Z,6.24
2019-04-01T06:12:06.925Z,6.35
2019-04-01T06:14:35.322Z,6.42
2019-04-01T06:17:03.990Z,6.54
2019-04-01T06:19:32.448Z,6.61
2019-04-01T06:22:00.915Z,6.75
2019-04-01T06:24:29.482Z,6.87
2019-04-01T06:26:57.950Z,7.02
2019-04-01T06:29:26.353Z,7.19
2019-04-01T06:31:54.762Z,7.33
2019-04-01T06:34:23.169Z,7.48
2019-04-01T06:36:51.726Z,7.63
2019-04-01T06:39:20.143Z,7.76
2019-04-01T06:41:48.813Z,7.87
2019-04-01T06:44:17.204Z,8.00
2019-04-01T06:46:45.968Z,8.07
2019-04-01T06:49:14.537Z,8.15
2019-04-01T06:51:43.010Z,8.21
2019-04-01T06:54:11.586Z,8.24
2019-04-01T06:56:40.361Z,8.31
2019-04-01T06:59:08.838Z,8.40
2019-04-01T07:01:37.314Z,8.50
2019-04-01T07:04:05.711Z,8.59
2019-04-01T07:06:34.114Z,8.61
2019-04-01T07:09:02.875Z,8.71
2019-04-01T07:11:31.652Z,8.81
2019-04-01T07:14:00.238Z,8.87
2019-04-01T07:16:28.715Z,8.94
2019-04-01T07:18:57.554Z,9.00
2019-04-01T07:21:26.248Z,9.12
2019-04-01T07:23:54.640Z,9.23
2019-04-01T07:26:23.052Z,9.35
2019-04-01T07:28:51.474Z,9.42
2019-04-01T07:31:19.869Z,9.50
2019-04-01T07:33:48.265Z,9.62
2019-04-01T07:36:16.959Z,9.73
2019-04-01T07:38:45.353Z,9.75
2019-04-01T07:41:13.816Z,9.91
2019-04-01T07:43:42.709Z,10.04
2019-04-01T07:46:11.104Z,10.13
2019-04-01T07:48:39.527Z,10.22
2019-04-01T07:51:08.766Z,10.32
2019-04-01T07:53:37.244Z,10.35
2019-04-01T07:56:05.679Z,10.37
2019-04-01T07:58:34.794Z,10.43
2019-04-01T08:01:03.271Z,10.45
2019-04-01T08:03:31.688Z,10.54
2019-04-01T08:06:00.092Z,10.61
2019-04-01T08:08:28.562Z,10.70
2019-04-01T08:10:58.016Z,10.74
2019-04-01T08:13:26.419Z,10.78
2019-04-01T08:15:54.821Z,10.87
2019-04-01T08:18:23.245Z,10.89
2019-04-01T08:20:51.641Z,10.99
2019-04-01T08:23:20.206Z,11.03
2019-04-01T08:25:48.716Z,11.20
2019-04-01T08:28:17.116Z,11.30
2019-04-01T08:30:45.593Z,11.48
2019-04-01T08:33:14.026Z,11.56
2019-04-01T08:35:42.435Z,11.69
2019-04-01T08:38:10.843Z,11.79
2019-04-01T08:40:39.333Z,11.84
2019-04-01T08:43:07.742Z,11.90
2019-04-01T08:45:36.224Z,12.06
2019-04-01T08:48:04.885Z,12.12
2019-04-01T08:50:33.300Z,12.24
2019-04-01T08:53:01.703Z,12.36
2019-04-01T08:55:30.197Z,12.42
2019-04-01T08:57:58.735Z,12.58
2019-04-01T09:00:27.150Z,12.70
2019-04-01T09:02:56.242Z,12.67
2019-04-01T09:05:24.635Z,12.66
2019-04-01T09:07:53.877Z,12.81
2019-04-01T09:10:22.300Z,12.78
2019-04-01T09:12:51.259Z,12.69
2019-04-01T09:15:19.663Z,12.65
2019-04-01T09:17:48.231Z,12.66
2019-04-01T09:20:16.809Z,12.57
2019-04-01T09:22:45.206Z,12.66
2019-04-01T09:25:13.677Z,12.70
2019-04-01T09:27:42.545Z,12.69
2019-04-01T09:30:11.672Z,12.83
2019-04-01T09:32:40.107Z,13.02
2019-04-01T09:35:09.072Z,12.91
2019-04-01T09:37:37.476Z,12.94
2019-04-01T09:40:09.915Z,13.02
2019-04-01T09:42:38.605Z,12.91
2019-04-01T09:45:08.141Z,12.98
2019-04-01T09:47:36.680Z,13.06
2019-04-01T09:50:05.945Z,13.08
2019-04-01T09:52:34.614Z,13.11
2019-04-01T09:55:06.219Z,13.33
2019-04-01T09:57:33.829Z,13.34
2019-04-01T10:00:02.296Z,13.45
2019-04-01T10:02:32.294Z,13.40
2019-04-01T10:05:00.989Z,13.36
2019-04-01T10:07:29.418Z,13.39
2019-04-01T10:09:57.806Z,13.48
2019-04-01T10:12:26.216Z,13.62
2019-04-01T10:14:54.610Z,13.56
2019-04-01T10:17:23.034Z,13.63
2019-04-01T10:19:51.435Z,13.82
2019-04-01T10:22:19.838Z,13.77
2019-04-01T10:24:48.255Z,13.85
2019-04-01T10:27:16.672Z,13.95
2019-04-01T10:29:45.062Z,13.94
2019-04-01T10:32:13.491Z,13.93
2019-04-01T10:34:41.898Z,14.08
2019-04-01T10:37:10.301Z,14.22
2019-04-01T10:39:38.725Z,14.28
2019-04-01T10:42:07.124Z,14.27
2019-04-01T10:44:35.541Z,14.14
2019-04-01T10:47:03.972Z,14.38
2019-04-01T10:49:32.584Z,14.53
2019-04-01T10:52:01.096Z,14.58
2019-04-01T10:54:29.440Z,14.76
2019-04-01T10:56:57.841Z,14.71
2019-04-01T10:59:26.355Z,14.74
2019-04-01T11:01:54.927Z,14.82
2019-04-01T11:04:23.393Z,14.93
2019-04-01T11:06:51.871Z,14.95
2019-04-01T11:09:20.257Z,14.94
2019-04-01T11:11:48.643Z,15.07
2019-04-01T11:14:17.078Z,15.25
2019-04-01T11:16:46.220Z,15.38
2019-04-01T11:19:14.902Z,15.32
2019-04-01T11:21:43.331Z,15.25
2019-04-01T11:24:11.728Z,15.33
2019-04-01T11:26:40.150Z,15.49
2019-04-01T11:29:08.567Z,15.55
2019-04-01T11:31:37.016Z,15.54
2019-04-01T11:34:05.502Z,15.59
2019-04-01T11:36:33.902Z,15.53
2019-04-01T11:39:02.376Z,15.56
2019-04-01T11:41:30.756Z,15.78
2019-04-01T11:43:59.274Z,15.83
2019-04-01T11:46:27.714Z,15.75
2019-04-01T11:48:56.076Z,15.78
2019-04-01T11:51:32.584Z,15.84
2019-04-01T11:53:54.689Z,16.02
2019-04-01T11:56:26.428Z,16.22
2019-04-01T11:58:56.627Z,16.26
2019-04-01T12:01:23.860Z,16.31
2019-04-01T12:03:52.287Z,16.39
2019-04-01T12:06:21.292Z,16.57
2019-04-01T12:08:49.733Z,16.71
2019-04-01T12:11:18.150Z,16.71
2019-04-01T12:13:46.617Z,16.81
2019-04-01T12:16:15.014Z,16.81
2019-04-01T12:18:44.673Z,16.82
2019-04-01T12:21:13.208Z,16.81
2019-04-01T12:23:41.605Z,16.93
2019-04-01T12:26:15.411Z,17.05
2019-04-01T12:28:40.161Z,17.13
2019-04-01T12:31:08.566Z,17.22
2019-04-01T12:33:37.061Z,17.35
2019-04-01T12:36:06.774Z,17.30
2019-04-01T12:38:35.174Z,17.27
2019-04-01T12:41:03.687Z,17.21
2019-04-01T12:43:32.154Z,17.23
2019-04-01T12:46:00.562Z,17.19
2019-04-01T12:48:28.978Z,17.25
2019-04-01T12:50:57.386Z,17.27
2019-04-01T12:53:25.781Z,17.30
2019-04-01T12:55:54.203Z,17.33
2019-04-01T12:58:25.207Z,17.35
2019-04-01T13:00:52.733Z,17.32
2019-04-01T13:03:21.153Z,17.33
2019-04-01T13:05:49.564Z,17.22
2019-04-01T13:08:17.964Z,17.18
2019-04-01T13:10:46.403Z,17.25
2019-04-01T13:13:15.598Z,17.32
2019-04-01T13:15:44.282Z,17.40
2019-04-01T13:18:12.698Z,17.38
2019-04-01T13:20:42.070Z,17.32
2019-04-01T13:23:10.778Z,17.28
2019-04-01T13:25:39.215Z,17.32
2019-04-01T13:28:07.614Z,17.33
2019-04-01T13:30:36.189Z,17.34
2019-04-01T13:33:04.608Z,17.42
2019-04-01T13:35:33.087Z,17.53
2019-04-01T13:38:01.571Z,17.60
2019-04-01T13:40:30.146Z,17.64
2019-04-01T13:42:58.540Z,17.55
2019-04-01T13:45:31.357Z,17.56
2019-04-01T13:47:57.137Z,17.54
2019-04-01T13:50:25.547Z,17.68
2019-04-01T13:52:53.966Z,17.71
2019-04-01T13:55:22.369Z,17.65
2019-04-01T13:57:50.787Z,17.66
2019-04-01T14:00:20.351Z,17.53
2019-04-01T14:02:48.803Z,17.49
2019-04-01T14:05:17.488Z,17.51
2019-04-01T14:07:45.898Z,17.52
2019-04-01T14:10:14.432Z,17.62
2019-04-01T14:12:42.928Z,17.70
2019-04-01T14:15:12.172Z,17.70
2019-04-01T14:17:40.566Z,17.67
2019-04-01T14:20:09.984Z,17.66
2019-04-01T14:22:38.382Z,17.71
2019-04-01T14:25:08.635Z,17.58
2019-04-01T14:27:37.035Z,17.56
2019-04-01T14:30:07.437Z,17.55
2019-04-01T14:32:35.866Z,17.58
2019-04-01T14:35:06.205Z,17.64
2019-04-01T14:37:34.610Z,17.67
2019-04-01T14:40:03.500Z,17.67
2019-04-01T14:42:31.907Z,17.67
2019-04-01T14:45:00.445Z,17.65
2019-04-01T14:47:28.856Z,17.64
2019-04-01T14:49:57.256Z,17.63
2019-04-01T14:52:32.359Z,17.62
2019-04-01T14:54:55.901Z,17.61
2019-04-01T14:57:25.233Z,17.61
2019-04-01T14:59:56.312Z,17.62
2019-04-01T15:02:24.979Z,17.59
2019-04-01T15:04:53.375Z,17.54
2019-04-01T15:07:21.812Z,17.61
2019-04-01T15:09:50.212Z,17.57
2019-04-01T15:12:18.615Z,17.55
2019-04-01T15:14:47.039Z,17.59
2019-04-01T15:17:15.442Z,17.60
2019-04-01T15:19:43.853Z,17.60
2019-04-01T15:22:12.267Z,17.60
2019-04-01T15:24:40.702Z,17.62
2019-04-01T15:27:09.072Z,17.60
2019-04-01T15:29:37.498Z,17.62
2019-04-01T15:32:06.173Z,17.62
2019-04-01T15:34:34.567Z,17.67
2019-04-01T15:37:02.996Z,17.68
2019-04-01T15:39:31.392Z,17.70
2019-04-01T15:41:59.798Z,17.72
2019-04-01T15:44:29.402Z,17.71
2019-04-01T15:46:57.997Z,17.71
2019-04-01T15:49:26.740Z,17.68
2019-04-01T15:51:55.165Z,17.68
2019-04-01T15:54:24.067Z,17.68
2019-04-01T15:56:52.475Z,17.70
2019-04-01T15:59:20.904Z,17.72
2019-04-01T16:01:49.306Z,17.72
2019-04-01T16:04:17.707Z,17.91
2019-04-01T16:06:46.134Z,18.30
2019-04-01T16:09:14.891Z,18.77
2019-04-01T16:11:43.297Z,19.03
2019-04-01T16:14:11.700Z,18.67
2019-04-01T16:16:40.144Z,18.19
2019-04-01T16:19:08.545Z,17.90
2019-04-01T16:21:37.297Z,17.72
2019-04-01T16:24:05.779Z,17.58
2019-04-01T16:26:34.178Z,17.46
2019-04-01T16:29:02.638Z,17.39
2019-04-01T16:31:31.106Z,17.31
2019-04-01T16:33:59.807Z,17.20
2019-04-01T16:36:28.204Z,17.13
2019-04-01T16:38:57.547Z,17.05
2019-04-01T16:41:25.945Z,17.00
2019-04-01T16:43:54.344Z,16.96
2019-04-01T16:46:22.939Z,16.90
2019-04-01T16:48:51.347Z,16.90
2019-04-01T16:51:20.089Z,16.85
2019-04-01T16:53:48.482Z,16.78
2019-04-01T16:56:16.891Z,16.76
2019-04-01T16:58:45.314Z,16.71
2019-04-01T17:01:13.722Z,16.68
2019-04-01T17:03:42.126Z,16.65
2019-04-01T17:06:10.609Z,16.56
2019-04-01T17:08:39.266Z,16.49
2019-04-01T17:11:07.956Z,16.41
2019-04-01T17:13:36.445Z,16.31
2019-04-01T17:16:05.381Z,16.25
2019-04-01T17:18:34.320Z,16.20
2019-04-01T17:21:02.738Z,16.18
2019-04-01T17:23:31.142Z,16.13
2019-04-01T17:25:59.589Z,16.04
2019-04-01T17:28:27.981Z,15.99
2019-04-01T17:30:56.461Z,15.97
2019-04-01T17:33:24.890Z,15.93
2019-04-01T17:35:53.362Z,15.89
2019-04-01T17:38:21.759Z,15.87
2019-04-01T17:40:50.199Z,15.77
2019-04-01T17:43:18.602Z,15.71
2019-04-01T17:45:47.287Z,15.67
2019-04-01T17:48:15.729Z,15.67
2019-04-01T17:50:44.135Z,15.61
2019-04-01T17:53:13.478Z,15.53
2019-04-01T17:55:45.370Z,15.49
2019-04-01T17:58:12.105Z,15.44
2019-04-01T18:00:42.449Z,15.41
2019-04-01T18:03:10.922Z,15.39
2019-04-01T18:05:39.319Z,15.36
2019-04-01T18:08:07.715Z,15.29
2019-04-01T18:10:36.146Z,15.13
2019-04-01T18:13:04.960Z,14.95
2019-04-01T18:15:33.371Z,14.80
2019-04-01T18:18:01.786Z,14.61
2019-04-01T18:20:30.432Z,14.44
2019-04-01T18:25:24.719Z,14.17
2019-04-01T18:27:53.119Z,13.93
2019-04-01T18:30:21.896Z,13.76
2019-04-01T18:32:54.799Z,13.62
2019-04-01T18:35:20.505Z,13.50
2019-04-01T18:37:49.111Z,13.40
2019-04-01T18:40:31.533Z,13.28
2019-04-01T18:42:47.834Z,13.19
2019-04-01T18:45:16.480Z,13.08
2019-04-01T18:47:44.878Z,13.01
2019-04-01T18:50:14.395Z,12.96
2019-04-01T18:52:43.129Z,12.93
2019-04-01T18:55:12.444Z,12.88
2019-04-01T18:57:41.122Z,12.79
2019-04-01T19:00:10.541Z,12.73
2019-04-01T19:02:39.198Z,12.75
2019-04-01T19:05:07.823Z,12.76
2019-04-01T19:07:36.242Z,12.86
2019-04-01T19:10:07.190Z,12.86
2019-04-01T19:12:36.134Z,12.86
2019-04-01T19:15:07.445Z,12.76
2019-04-01T19:17:37.741Z,12.60
2019-04-01T19:20:08.418Z,12.38
2019-04-01T19:22:36.882Z,12.23
2019-04-01T19:25:07.328Z,12.06
2019-04-01T19:27:35.740Z,12.01
2019-04-01T19:30:05.890Z,11.99
2019-04-01T19:32:34.288Z,11.97
2019-04-01T19:35:02.704Z,11.96
2019-04-01T19:37:33.641Z,11.99
2019-04-01T19:40:01.232Z,11.90
2019-04-01T19:42:29.870Z,11.76
2019-04-01T19:44:58.280Z,11.60
2019-04-01T19:47:26.674Z,11.40
2019-04-01T19:49:55.100Z,11.25
2019-04-01T19:52:23.525Z,11.16
2019-04-01T19:54:51.924Z,11.06
2019-04-01T19:57:20.329Z,10.91
2019-04-01T19:59:48.747Z,10.79
2019-04-01T20:02:17.148Z,10.68
2019-04-01T20:04:45.546Z,10.60
2019-04-01T20:07:13.972Z,10.59
2019-04-01T20:09:42.369Z,10.58
2019-04-01T20:12:12.010Z,10.48
2019-04-01T20:14:40.690Z,10.31
2019-04-01T20:17:10.164Z,10.15
2019-04-01T20:19:38.873Z,10.09
2019-04-01T20:22:07.296Z,10.09
2019-04-01T20:24:35.697Z,10.13
2019-04-01T20:27:04.103Z,10.04
2019-04-01T20:29:32.629Z,9.92
2019-04-01T20:32:01.037Z,9.78
2019-04-01T20:34:32.056Z,9.63
2019-04-01T20:37:00.221Z,9.50
2019-04-01T20:39:28.666Z,9.38
2019-04-01T20:41:57.067Z,9.29
2019-04-01T20:44:25.488Z,9.28
2019-04-01T20:46:53.883Z,9.29
2019-04-01T20:49:22.525Z,9.18
2019-04-01T20:51:50.949Z,9.11
2019-04-01T20:54:19.361Z,9.01
2019-04-01T20:56:48.218Z,8.95
2019-04-01T20:59:17.439Z,8.88
2019-04-01T21:01:45.851Z,8.78
2019-04-01T21:04:14.254Z,8.62
2019-04-01T21:06:42.677Z,8.50
2019-04-01T21:09:11.066Z,8.46
2019-04-01T21:11:40.068Z,8.43
2019-04-01T21:14:08.657Z,8.41
2019-04-01T21:16:37.322Z,8.37
2019-04-01T21:19:05.796Z,8.37
2019-04-01T21:21:34.229Z,8.40
2019-04-01T21:24:02.623Z,8.37
2019-04-01T21:26:31.027Z,8.40
2019-04-01T21:28:59.440Z,8.62
2019-04-01T21:31:27.839Z,8.77
2019-04-01T21:33:56.237Z,8.79
2019-04-01T21:36:24.666Z,8.68
2019-04-01T21:38:53.338Z,8.52
2019-04-01T21:41:21.738Z,8.35
2019-04-01T21:43:50.504Z,8.20
2019-04-01T21:46:19.176Z,8.18
2019-04-01T21:48:47.674Z,8.12
2019-04-01T21:51:16.104Z,8.07
2019-04-01T21:53:44.491Z,8.00
2019-04-01T21:56:12.905Z,7.90
2019-04-01T21:58:41.316Z,7.79
2019-04-01T22:01:10.180Z,7.71
2019-04-01T22:03:38.574Z,7.65
2019-04-01T22:06:07.002Z,7.57
2019-04-01T22:08:36.159Z,7.50
2019-04-01T22:11:04.728Z,7.41
2019-04-01T22:13:33.148Z,7.33
2019-04-01T22:16:01.716Z,7.26
2019-04-01T22:18:32.764Z,7.20
2019-04-01T22:21:00.255Z,7.16
2019-04-01T22:23:28.653Z,7.06
2019-04-01T22:25:57.049Z,6.99
2019-04-01T22:28:25.663Z,6.99
2019-04-01T22:30:54.043Z,6.95
2019-04-01T22:33:22.439Z,6.87
2019-04-01T22:35:50.866Z,6.75
2019-04-01T22:38:24.941Z,6.64
2019-04-01T22:40:49.385Z,6.65
2019-04-01T22:43:17.818Z,6.63
2019-04-01T22:45:46.286Z,6.63
2019-04-01T22:48:14.714Z,6.59
2019-04-01T22:50:43.186Z,6.53
2019-04-01T22:53:11.591Z,6.47
2019-04-01T22:55:39.982Z,6.43
2019-04-01T22:58:08.397Z,6.40
2019-04-01T23:00:36.796Z,6.35
2019-04-01T23:03:05.221Z,6.29
2019-04-01T23:05:33.950Z,6.24
2019-04-01T23:08:02.762Z,6.18
2019-04-01T23:10:31.244Z,6.18
2019-04-01T23:12:59.644Z,6.18
2019-04-01T23:15:28.038Z,6.15
2019-04-01T23:17:56.460Z,6.08
2019-04-01T23:20:24.859Z,6.01
2019-04-01T23:22:53.277Z,5.95
2019-04-01T23:25:21.681Z,5.91
2019-04-01T23:27:50.351Z,5.92
2019-04-01T23:30:20.222Z,6.05
2019-04-01T23:32:48.753Z,6.12
2019-04-01T23:35:17.155Z,6.12
2019-04-01T23:37:45.913Z,6.11
2019-04-01T23:40:14.497Z,6.08
2019-04-01T23:42:42.893Z,6.06
2019-04-01T23:45:11.540Z,5.96
2019-04-01T23:47:39.983Z,5.84
2019-04-01T23:50:09.805Z,5.77
2019-04-01T23:52:38.295Z,5.74
2019-04-01T23:55:07.149Z,5.71
2019-04-01T23:57:35.543Z,5.71
